Monument, Oregon
Current Conditions -  °F | °C
As of 7:35 PM on Saturday 24 Jan 2015 (Local Time) from KGCD Reporting Station
Clear Clear  
Wind Chill: 45°   Ceiling: Unl
Heat Index: 48°   Visibility: 10mi
Dew Point: 40°   Wind: 8mph
Humidity: 73%   Direction: 150°SSE
Pressure: 30.36"   Gusts: NA
Location:  44.82°N, 119.42°W
Report Text: KGCD 250335Z AUTO 15007KT 10SM CLR 09/04 A3036 RMK AO2 T00900044
Loading
Personal Weather Stations






























Interactive Weather Map New forecast layout! Learn more

10-Day Weather Forecast

Advertisements
Track Severe Weather on mobile